No particular awareness of the weather is required.    There are no Weather-warnings

Webcam Vacarisses more information Webcam Vacarisses


Thunder radar more information blitzortung!


Rain radar more information rain snow radar


Visit our other weather sites:

Template documentation
and downloads

And another site



Nearby METAR Reports

   
EBAW - Antwerp
Updated: 23-05-2018 03:20
Clear  
Clear  
   Wind: NNE 1.9 km/h
Wind: NNE 1.9 km/h
Temperature: 15°C
Dew Point: 13°C
Humidity: 88%
Barometer: 1016 hPa
Clouds: Clear
Visibility: 9 km
Cloud details: Clear
EBAW 230120Z AUTO 03001KT 9000 // NCD 15/13 Q1016
EBLG - Li├Ęge
Updated: 23-05-2018 03:20
Mist, Shallow Fog, Partly Cloudy  
Mist, Shallow Fog, Partly Cloudy  
   Wind: North 3.7 km/h
Wind: North 3.7 km/h
Temperature: 14°C
Dew Point: 14°C
Humidity: 100%
Barometer: 1016 hPa
Clouds: Partly Cloudy
Visibility: 2 km
Cloud details: Partly Cloudy
EBLG 230120Z 01002KT 2000 BR MIFG NSC 14/14 Q1016 TEMPO 0800 MIFG FG BKN00
EBCV - Mons/Bergen
Updated: 23-05-2018 02:55
Mist, Overcast  
Mist, Overcast  
   Wind: WNW 5.6 km/h
Wind: WNW 5.6 km/h
Temperature: 14°C
Dew Point: 13°C
Humidity: 94%
Barometer: 1017 hPa
Clouds: Overcast
Visibility: 3 km
Cloud details: Few Clouds 8900 ft,
Overcast 11000 ft
EBCV 230055Z AUTO 30003KT 2700 BR FEW089/// OVC110/// 14/13 Q1017 YLO
EHBK - Maastricht
Updated: 23-05-2018 02:55
Light Rain, Partly Cloudy  
Light Rain, Partly Cloudy  
   Wind: North 7.4 km/h
Wind: North 7.4 km/h
Temperature: 14°C
Dew Point: 14°C
Humidity: 100%
Barometer: 1016 hPa
Clouds: Partly Cloudy
Visibility: 5 km
Cloud details: Partly Cloudy
EHBK 230055Z AUTO 35004KT 5000 -RA NSC 14/14 Q1016 REDZ
ELLX - Luxemburg
Updated: 23-05-2018 03:20
Light Showers, Rain, Overcast  
Light Showers, Rain, Overcast  
   Wind: ENE 13 km/h
Wind: ENE 13 km/h
Temperature: 14°C
Dew Point: 14°C
Humidity: 100%
Barometer: 1016 hPa
Clouds: Overcast
Visibility: 6 km
Cloud details: Overcast 5900 ft
ELLX 230120Z AUTO 07007KT 6000 -SHRA OVC059/// 14/14 Q1016 NOSIG
EBOS - Oostende
Updated: 23-05-2018 03:20
Few Clouds  
Few Clouds  
   Wind: North 18.5 km/h
Wind: North 18.5 km/h
Temperature: 13°C
Dew Point: 10°C
Humidity: 82%
Barometer: 1018 hPa
Clouds: Few Clouds
Visibility: More than 10 km
Cloud details: Few Clouds 3000 ft
EBOS 230120Z 35010KT 9999 FEW030 13/10 Q1018

Script developed by  Saratoga-weather.org Adapted for the template by  Weerstation Leuven

You find our weather info also at:

UK Metoffice

European Weather Network

WeatherCloud

Weather Underground

AWEKAS

WeatherlinkIP

Citizen Weather Observer Program (CWOP)

HAMweather, WeatherForYou, PWS Weather

Equipment we use:

Weather-station
Davis Vantage Vue

Weather-program
Weather Display

Weather-server
My Computer

Provider
My provider

Davis Vantage Vue

Weather Display

My Computer

My provider